createdAt,value
2023-02-03T00:00:04.640Z,1028.31
2023-02-03T00:00:28.072Z,1028.31
2023-02-03T00:00:59.787Z,1028.31
2023-02-03T00:01:31.799Z,1028.24
2023-02-03T00:02:03.826Z,1028.24
2023-02-03T00:02:35.098Z,1028.24
2023-02-03T00:03:08.403Z,1028.24
2023-02-03T00:03:41.265Z,1028.24
2023-02-03T00:04:08.552Z,1028.14
2023-02-03T00:04:25.441Z,1028.14
2023-02-03T00:05:02.134Z,1028.14
2023-02-03T00:05:31.950Z,1028.04
2023-02-03T00:06:04.128Z,1028.04
2023-02-03T00:06:35.158Z,1028.14
2023-02-03T00:07:07.735Z,1028.14
2023-02-03T00:07:39.847Z,1027.94
2023-02-03T00:08:02.569Z,1028.14
2023-02-03T00:08:24.857Z,1028.14
2023-02-03T00:08:59.763Z,1028.14
2023-02-03T00:09:33.156Z,1028.14
2023-02-03T00:09:58.229Z,1028.14
2023-02-03T00:10:35.547Z,1028.14
2023-02-03T00:11:09.420Z,1028.14
2023-02-03T00:11:39.974Z,1028.04
2023-02-03T00:12:02.622Z,1028.04
2023-02-03T00:12:25.052Z,1028.04
2023-02-03T00:13:00.124Z,1028.04
2023-02-03T00:13:34.645Z,1028.24
2023-02-03T00:14:03.940Z,1028.24
2023-02-03T00:14:35.693Z,1027.84
2023-02-03T00:15:08.095Z,1027.84
2023-02-03T00:15:39.740Z,1028.14
2023-02-03T00:16:02.997Z,1028.14
2023-02-03T00:16:25.408Z,1028.14
2023-02-03T00:17:00.030Z,1028.14
2023-02-03T00:17:32.421Z,1028.24
2023-02-03T00:18:04.923Z,1028.24
2023-02-03T00:18:35.461Z,1027.94
2023-02-03T00:19:08.018Z,1027.94
2023-02-03T00:19:39.773Z,1028.04
2023-02-03T00:20:02.547Z,1027.84
2023-02-03T00:20:25.653Z,1027.84
2023-02-03T00:21:04.331Z,1027.84
2023-02-03T00:21:32.058Z,1027.94
2023-02-03T00:22:04.300Z,1027.94
2023-02-03T00:22:35.873Z,1027.94
2023-02-03T00:23:07.781Z,1027.94
2023-02-03T00:23:40.007Z,1027.84
2023-02-03T00:24:02.685Z,1027.84
2023-02-03T00:24:25.180Z,1027.84
2023-02-03T00:24:59.898Z,1027.84
2023-02-03T00:25:31.905Z,1027.94
2023-02-03T00:26:07.206Z,1027.84
2023-02-03T00:26:29.822Z,1027.84
2023-02-03T00:27:08.036Z,1027.84
2023-02-03T00:27:39.638Z,1028.04
2023-02-03T00:28:02.500Z,1028.04
2023-02-03T00:28:26.410Z,1028.04
2023-02-03T00:29:01.268Z,1028.04
2023-02-03T00:29:31.648Z,1027.84
2023-02-03T00:30:09.598Z,1027.84
2023-02-03T00:30:35.173Z,1027.84
2023-02-03T00:31:07.661Z,1027.84
2023-02-03T00:31:39.955Z,1027.84
2023-02-03T00:32:02.858Z,1027.94
2023-02-03T00:32:25.127Z,1027.94
2023-02-03T00:32:59.707Z,1027.94
2023-02-03T00:33:31.837Z,1027.94
2023-02-03T00:34:03.736Z,1027.94
2023-02-03T00:34:35.169Z,1027.94
2023-02-03T00:35:07.653Z,1027.94
2023-02-03T00:35:39.798Z,1027.94
2023-02-03T00:36:03.424Z,1027.84
2023-02-03T00:36:25.894Z,1027.84
2023-02-03T00:36:59.828Z,1027.84
2023-02-03T00:37:31.751Z,1027.94
2023-02-03T00:38:03.640Z,1027.94
2023-02-03T00:38:35.332Z,1027.84
2023-02-03T00:39:08.266Z,1027.84
2023-02-03T00:39:40.002Z,1027.84
2023-02-03T00:40:02.579Z,1027.84
2023-02-03T00:40:43.734Z,1027.84
2023-02-03T00:41:06.414Z,1027.94
2023-02-03T00:41:28.733Z,1027.94
2023-02-03T00:42:03.700Z,1027.94
2023-02-03T00:42:35.278Z,1027.94
2023-02-03T00:43:07.641Z,1027.94
2023-02-03T00:43:39.729Z,1027.94
2023-02-03T00:44:02.320Z,1028.04
2023-02-03T00:44:24.728Z,1028.04
2023-02-03T00:44:59.712Z,1028.04
2023-02-03T00:45:34.459Z,1027.84
2023-02-03T00:46:03.752Z,1027.84
2023-02-03T00:46:35.144Z,1027.84
2023-02-03T00:47:08.160Z,1027.84
2023-02-03T00:47:39.981Z,1027.94
2023-02-03T00:48:04.072Z,1027.84
2023-02-03T00:48:26.477Z,1027.84
2023-02-03T00:48:59.764Z,1027.84
2023-02-03T00:49:31.786Z,1027.94
2023-02-03T00:50:03.682Z,1027.94
2023-02-03T00:50:35.233Z,1027.84
2023-02-03T00:51:07.710Z,1027.84
2023-02-03T00:51:39.728Z,1027.84
2023-02-03T00:52:02.642Z,1028.04
2023-02-03T00:52:25.294Z,1028.04
2023-02-03T00:52:59.744Z,1028.04
2023-02-03T00:53:31.813Z,1027.73
2023-02-03T00:54:03.692Z,1027.73
2023-02-03T00:54:35.208Z,1027.84
2023-02-03T00:55:07.949Z,1027.84
2023-02-03T00:55:39.616Z,1027.94
2023-02-03T00:56:03.352Z,1027.94
2023-02-03T00:56:25.668Z,1027.94
2023-02-03T00:56:59.626Z,1027.94
2023-02-03T00:57:31.576Z,1027.84
2023-02-03T00:58:03.777Z,1027.84
2023-02-03T00:58:35.620Z,1027.84
2023-02-03T00:59:07.872Z,1027.84
2023-02-03T00:59:39.721Z,1028.14
2023-02-03T01:00:04.332Z,1027.94
2023-02-03T01:00:28.317Z,1027.94
2023-02-03T01:00:59.800Z,1027.94
2023-02-03T01:01:31.697Z,1027.94
2023-02-03T01:02:03.971Z,1027.94
2023-02-03T01:02:35.343Z,1027.94
2023-02-03T01:03:08.125Z,1027.94
2023-02-03T01:03:39.820Z,1028.04
2023-02-03T01:04:02.268Z,1028.14
2023-02-03T01:04:25.545Z,1028.14
2023-02-03T01:04:59.668Z,1028.14
2023-02-03T01:05:31.639Z,1028.04
2023-02-03T01:06:03.639Z,1028.04
2023-02-03T01:06:40.657Z,1028.14
2023-02-03T01:07:07.616Z,1028.14
2023-02-03T01:07:39.845Z,1028.24
2023-02-03T01:08:02.631Z,1028.14
2023-02-03T01:08:26.011Z,1028.14
2023-02-03T01:08:59.712Z,1028.14
2023-02-03T01:09:32.053Z,1028.14
2023-02-03T01:10:03.740Z,1028.14
2023-02-03T01:10:35.283Z,1028.24
2023-02-03T01:11:07.739Z,1028.24
2023-02-03T01:11:40.626Z,1028.24
2023-02-03T01:12:03.699Z,1028.04
2023-02-03T01:12:26.373Z,1028.04
2023-02-03T01:12:59.757Z,1028.04
2023-02-03T01:13:31.657Z,1028.14
2023-02-03T01:14:03.714Z,1028.14
2023-02-03T01:14:35.501Z,1028.31
2023-02-03T01:15:07.671Z,1028.31
2023-02-03T01:15:39.537Z,1028.24
2023-02-03T01:16:02.203Z,1028.14
2023-02-03T01:16:28.560Z,1028.14
2023-02-03T01:16:59.755Z,1028.14
2023-02-03T01:17:31.703Z,1028.41
2023-02-03T01:18:03.644Z,1028.41
2023-02-03T01:18:35.227Z,1028.24
2023-02-03T01:19:07.887Z,1028.24
2023-02-03T01:19:39.683Z,1028.14
2023-02-03T01:20:02.574Z,1028.31
2023-02-03T01:20:25.452Z,1028.31
2023-02-03T01:20:59.840Z,1028.31
2023-02-03T01:21:31.578Z,1028.24
2023-02-03T01:22:03.723Z,1028.24
2023-02-03T01:22:40.709Z,1028.14
2023-02-03T01:23:09.209Z,1028.14
2023-02-03T01:23:39.755Z,1028.24
2023-02-03T01:24:02.914Z,1028.04
2023-02-03T01:24:25.243Z,1028.04
2023-02-03T01:25:03.040Z,1028.04
2023-02-03T01:25:31.574Z,1028.14
2023-02-03T01:26:03.663Z,1028.14
2023-02-03T01:26:35.161Z,1028.24
2023-02-03T01:27:07.732Z,1028.24
2023-02-03T01:27:39.614Z,1028.24
2023-02-03T01:28:02.999Z,1028.04
2023-02-03T01:28:25.349Z,1028.04
2023-02-03T01:29:01.211Z,1028.04
2023-02-03T01:29:31.939Z,1028.04
2023-02-03T01:30:03.811Z,1028.04
2023-02-03T01:30:35.319Z,1028.04
2023-02-03T01:31:07.745Z,1028.04
2023-02-03T01:31:40.043Z,1028.04
2023-02-03T01:32:02.817Z,1028.14
2023-02-03T01:32:25.079Z,1028.14
2023-02-03T01:33:00.732Z,1028.14
2023-02-03T01:33:31.723Z,1028.14
2023-02-03T01:34:03.633Z,1028.14
2023-02-03T01:34:35.274Z,1028.14
2023-02-03T01:35:07.799Z,1028.14
2023-02-03T01:35:39.604Z,1028.41
2023-02-03T01:36:03.460Z,1028.14
2023-02-03T01:36:25.886Z,1028.14
2023-02-03T01:36:59.694Z,1028.14
2023-02-03T01:37:31.685Z,1028.24
2023-02-03T01:38:03.805Z,1028.24
2023-02-03T01:38:35.149Z,1028.24
2023-02-03T01:39:07.693Z,1028.24
2023-02-03T01:39:39.777Z,1028.04
2023-02-03T01:40:02.582Z,1027.94
2023-02-03T01:40:25.791Z,1027.94
2023-02-03T01:40:59.727Z,1027.94
2023-02-03T01:41:31.947Z,1028.24
2023-02-03T01:42:03.752Z,1028.24
2023-02-03T01:42:35.314Z,1028.14
2023-02-03T01:43:09.260Z,1028.14
2023-02-03T01:43:39.730Z,1028.31
2023-02-03T01:44:02.543Z,1028.04
2023-02-03T01:44:24.798Z,1028.04
2023-02-03T01:44:59.619Z,1028.04
2023-02-03T01:45:31.612Z,1028.14
2023-02-03T01:46:04.690Z,1028.14
2023-02-03T01:46:35.120Z,1028.41
2023-02-03T01:47:08.056Z,1028.41
2023-02-03T01:47:39.554Z,1028.41
2023-02-03T01:48:02.336Z,1028.41
2023-02-03T01:48:24.679Z,1028.41
2023-02-03T01:48:59.631Z,1028.41
2023-02-03T01:49:31.804Z,1028.31
2023-02-03T01:50:03.610Z,1028.31
2023-02-03T01:50:35.131Z,1028.24
2023-02-03T01:51:07.630Z,1028.24
2023-02-03T01:51:39.966Z,1028.24
2023-02-03T01:52:02.867Z,1028.14
2023-02-03T01:52:25.248Z,1028.14
2023-02-03T01:53:00.163Z,1028.14
2023-02-03T01:53:32.043Z,1028.04
2023-02-03T01:54:03.592Z,1028.04
2023-02-03T01:54:35.296Z,1028.04
2023-02-03T01:55:07.641Z,1028.04
2023-02-03T01:55:39.736Z,1028.04
2023-02-03T01:56:03.034Z,1028.04
2023-02-03T01:56:25.498Z,1028.04
2023-02-03T01:56:59.546Z,1028.04
2023-02-03T01:57:32.365Z,1027.94
2023-02-03T01:58:03.597Z,1027.94
2023-02-03T01:58:35.507Z,1028.24
2023-02-03T01:59:07.568Z,1028.24
2023-02-03T01:59:40.058Z,1028.14
2023-02-03T02:00:04.622Z,1028.04
2023-02-03T02:00:28.573Z,1028.04
2023-02-03T02:00:59.776Z,1028.04
2023-02-03T02:01:33.284Z,1028.04
2023-02-03T02:02:03.750Z,1028.04
2023-02-03T02:02:35.220Z,1027.94
2023-02-03T02:03:11.218Z,1027.94
2023-02-03T02:03:41.063Z,1028.14
2023-02-03T02:04:03.539Z,1028.24
2023-02-03T02:04:24.666Z,1028.24
2023-02-03T02:04:59.898Z,1028.24
2023-02-03T02:05:33.745Z,1028.14
2023-02-03T02:06:03.625Z,1028.14
2023-02-03T02:06:35.210Z,1028.31
2023-02-03T02:07:07.660Z,1028.31
2023-02-03T02:07:39.609Z,1028.14
2023-02-03T02:08:03.631Z,1028.31
2023-02-03T02:08:26.444Z,1028.31
2023-02-03T02:08:59.717Z,1028.31
2023-02-03T02:09:31.927Z,1028.14
2023-02-03T02:10:03.545Z,1028.14
2023-02-03T02:10:35.287Z,1028.31
2023-02-03T02:11:07.555Z,1028.31
2023-02-03T02:11:39.623Z,1028.04
2023-02-03T02:12:02.944Z,1028.24
2023-02-03T02:12:25.515Z,1028.24
2023-02-03T02:13:00.112Z,1028.24
2023-02-03T02:13:31.778Z,1028.04
2023-02-03T02:14:03.919Z,1028.04
2023-02-03T02:14:35.303Z,1028.04
2023-02-03T02:15:07.754Z,1028.04
2023-02-03T02:15:39.772Z,1027.73
2023-02-03T02:16:03.361Z,1027.84
2023-02-03T02:16:25.335Z,1027.84
2023-02-03T02:17:01.183Z,1027.84
2023-02-03T02:17:25.558Z,1027.63
2023-02-03T02:18:04.117Z,1027.63
2023-02-03T02:18:35.747Z,1027.94
2023-02-03T02:19:07.709Z,1027.94
2023-02-03T02:19:40.037Z,1027.84
2023-02-03T02:20:02.865Z,1028.04
2023-02-03T02:20:25.804Z,1028.04
2023-02-03T02:20:59.735Z,1028.04
2023-02-03T02:21:31.655Z,1027.73
2023-02-03T02:22:05.633Z,1027.73
2023-02-03T02:22:37.778Z,1027.73
2023-02-03T02:23:07.704Z,1027.73
2023-02-03T02:23:43.237Z,1027.73
2023-02-03T02:24:02.297Z,1027.63
2023-02-03T02:24:25.103Z,1027.63
2023-02-03T02:24:59.611Z,1027.63
2023-02-03T02:25:31.734Z,1027.63
2023-02-03T02:26:03.618Z,1027.63
2023-02-03T02:26:36.782Z,1027.43
2023-02-03T02:27:07.554Z,1027.43
2023-02-03T02:27:40.110Z,1027.33
2023-02-03T02:28:02.892Z,1027.53
2023-02-03T02:28:25.177Z,1027.53
2023-02-03T02:29:01.439Z,1027.43
2023-02-03T02:29:31.829Z,1027.43
2023-02-03T02:30:09.358Z,1027.33
2023-02-03T02:30:31.538Z,1027.33
2023-02-03T02:31:07.732Z,1027.33
2023-02-03T02:31:39.795Z,1027.23
2023-02-03T02:32:03.050Z,1027.23
2023-02-03T02:32:25.326Z,1027.23
2023-02-03T02:32:59.755Z,1027.23
2023-02-03T02:33:31.582Z,1027.43
2023-02-03T02:34:03.979Z,1027.43
2023-02-03T02:34:35.164Z,1027.63
2023-02-03T02:35:07.789Z,1027.63
2023-02-03T02:35:39.532Z,1027.23
2023-02-03T02:36:02.940Z,1027.43
2023-02-03T02:36:25.304Z,1027.43
2023-02-03T02:36:59.836Z,1027.43
2023-02-03T02:37:31.687Z,1027.23
2023-02-03T02:38:03.637Z,1027.23
2023-02-03T02:38:35.253Z,1027.23
2023-02-03T02:39:07.528Z,1027.23
2023-02-03T02:39:39.609Z,1027.23
2023-02-03T02:40:02.174Z,1027.12
2023-02-03T02:40:25.042Z,1027.12
2023-02-03T02:40:59.720Z,1027.12
2023-02-03T02:41:31.758Z,1027.12
2023-02-03T02:42:05.036Z,1027.12
2023-02-03T02:42:35.286Z,1027.02
2023-02-03T02:43:13.582Z,1027.12
2023-02-03T02:43:36.148Z,1027.12
2023-02-03T02:44:07.643Z,1027.12
2023-02-03T02:44:43.969Z,1027.12
2023-02-03T02:45:06.658Z,1027.43
2023-02-03T02:45:28.850Z,1027.43
2023-02-03T02:46:03.768Z,1027.43
2023-02-03T02:46:36.277Z,1027.23
2023-02-03T02:47:07.714Z,1027.23
2023-02-03T02:47:40.446Z,1027.12
2023-02-03T02:48:02.727Z,1027.02
2023-02-03T02:48:26.042Z,1027.02
2023-02-03T02:48:59.668Z,1027.02
2023-02-03T02:49:32.379Z,1027.12
2023-02-03T02:50:04.403Z,1027.12
2023-02-03T02:50:35.739Z,1027.12
2023-02-03T02:51:08.217Z,1027.12
2023-02-03T02:51:40.624Z,1027.12
2023-02-03T02:52:02.205Z,1027.12
2023-02-03T02:52:24.935Z,1027.12
2023-02-03T02:52:59.796Z,1027.12
2023-02-03T02:53:31.988Z,1027.12
2023-02-03T02:54:04.428Z,1027.12
2023-02-03T02:54:35.732Z,1027.23
2023-02-03T02:55:07.872Z,1027.23
2023-02-03T02:55:41.391Z,1027.12
2023-02-03T02:56:02.797Z,1027.12
2023-02-03T02:56:25.013Z,1027.12
2023-02-03T02:56:59.903Z,1027.12
2023-02-03T02:57:31.746Z,1027.23
2023-02-03T02:58:03.820Z,1027.23
2023-02-03T02:58:35.709Z,1027.33
2023-02-03T02:59:08.858Z,1027.33
2023-02-03T02:59:57.630Z,1027.43
2023-02-03T03:00:29.297Z,1027.63
2023-02-03T03:01:08.610Z,1027.33
2023-02-03T03:01:32.007Z,1027.33
2023-02-03T03:02:07.275Z,1027.33
2023-02-03T03:02:35.289Z,1027.43
2023-02-03T03:03:07.823Z,1027.43
2023-02-03T03:03:39.749Z,1027.73
2023-02-03T03:04:03.055Z,1027.63
2023-02-03T03:04:25.513Z,1027.63
2023-02-03T03:04:59.707Z,1027.63
2023-02-03T03:05:31.506Z,1027.84
2023-02-03T03:06:03.702Z,1027.84
2023-02-03T03:06:29.971Z,1027.63
2023-02-03T03:07:08.315Z,1027.63
2023-02-03T03:07:40.063Z,1027.73
2023-02-03T03:08:02.857Z,1027.84
2023-02-03T03:08:25.391Z,1027.84
2023-02-03T03:09:00.013Z,1027.84
2023-02-03T03:09:35.425Z,1027.73
2023-02-03T03:09:59.918Z,1027.73
2023-02-03T03:10:35.230Z,1027.84
2023-02-03T03:11:10.124Z,1027.84
2023-02-03T03:11:43.145Z,1027.73
2023-02-03T03:12:03.446Z,1027.73
2023-02-03T03:12:25.760Z,1027.73
2023-02-03T03:12:59.663Z,1027.73
2023-02-03T03:13:31.758Z,1027.73
2023-02-03T03:14:03.744Z,1027.73
2023-02-03T03:14:35.218Z,1027.53
2023-02-03T03:15:07.803Z,1027.53
2023-02-03T03:15:39.705Z,1027.84
2023-02-03T03:16:03.729Z,1027.63
2023-02-03T03:16:26.134Z,1027.63
2023-02-03T03:17:00.329Z,1027.63
2023-02-03T03:17:31.624Z,1027.73
2023-02-03T03:18:03.781Z,1027.73
2023-02-03T03:18:35.284Z,1027.53
2023-02-03T03:19:07.600Z,1027.53
2023-02-03T03:19:39.629Z,1027.43
2023-02-03T03:20:02.403Z,1027.63
2023-02-03T03:20:25.340Z,1027.63
2023-02-03T03:20:59.662Z,1027.63
2023-02-03T03:21:31.487Z,1027.73
2023-02-03T03:22:03.601Z,1027.73
2023-02-03T03:22:35.295Z,1027.33
2023-02-03T03:23:07.820Z,1027.33
2023-02-03T03:23:39.818Z,1027.53
2023-02-03T03:24:04.560Z,1027.43
2023-02-03T03:24:26.827Z,1027.43
2023-02-03T03:24:59.691Z,1027.43
2023-02-03T03:25:31.624Z,1027.43
2023-02-03T03:26:03.736Z,1027.43
2023-02-03T03:26:35.280Z,1027.53
2023-02-03T03:27:07.514Z,1027.53
2023-02-03T03:27:40.036Z,1027.43
2023-02-03T03:28:02.461Z,1027.33
2023-02-03T03:28:24.857Z,1027.33
2023-02-03T03:29:02.008Z,1027.33
2023-02-03T03:29:32.135Z,1027.53
2023-02-03T03:30:03.665Z,1027.53
2023-02-03T03:30:35.227Z,1027.43
2023-02-03T03:31:07.757Z,1027.43
2023-02-03T03:31:39.742Z,1027.53
2023-02-03T03:32:05.968Z,1027.53
2023-02-03T03:32:24.759Z,1027.53
2023-02-03T03:32:59.624Z,1027.53
2023-02-03T03:33:31.590Z,1027.53
2023-02-03T03:34:03.630Z,1027.53
2023-02-03T03:34:35.444Z,1027.43
2023-02-03T03:35:07.654Z,1027.43
2023-02-03T03:35:39.818Z,1027.53
2023-02-03T03:36:02.399Z,1027.33
2023-02-03T03:36:24.783Z,1027.33
2023-02-03T03:36:59.875Z,1027.33
2023-02-03T03:37:31.592Z,1027.63
2023-02-03T03:38:03.628Z,1027.63
2023-02-03T03:38:35.175Z,1027.43
2023-02-03T03:39:07.621Z,1027.43
2023-02-03T03:39:39.579Z,1027.23
2023-02-03T03:40:02.392Z,1027.33
2023-02-03T03:40:25.090Z,1027.33
2023-02-03T03:40:59.584Z,1027.33
2023-02-03T03:41:31.462Z,1027.53
2023-02-03T03:42:03.672Z,1027.53
2023-02-03T03:42:35.295Z,1027.43
2023-02-03T03:43:07.560Z,1027.43
2023-02-03T03:43:39.499Z,1027.23
2023-02-03T03:44:02.236Z,1027.33
2023-02-03T03:44:24.622Z,1027.33
2023-02-03T03:44:59.583Z,1027.33
2023-02-03T03:45:31.690Z,1027.33
2023-02-03T03:46:03.500Z,1027.33
2023-02-03T03:46:35.436Z,1027.53
2023-02-03T03:47:07.573Z,1027.53
2023-02-03T03:47:39.663Z,1027.43
2023-02-03T03:48:02.937Z,1027.33
2023-02-03T03:48:25.336Z,1027.33
2023-02-03T03:48:59.672Z,1027.33
2023-02-03T03:49:31.792Z,1027.33
2023-02-03T03:50:03.517Z,1027.33
2023-02-03T03:50:35.238Z,1027.23
2023-02-03T03:51:11.052Z,1027.23
2023-02-03T03:51:39.643Z,1027.33
2023-02-03T03:52:04.684Z,1027.43
2023-02-03T03:52:25.692Z,1027.43
2023-02-03T03:53:05.151Z,1027.43
2023-02-03T03:53:31.497Z,1027.43
2023-02-03T03:54:03.889Z,1027.43
2023-02-03T03:54:35.123Z,1027.23
2023-02-03T03:55:07.712Z,1027.23
2023-02-03T03:55:39.472Z,1027.12
2023-02-03T03:56:02.375Z,1027.33
2023-02-03T03:56:24.958Z,1027.33
2023-02-03T03:56:59.690Z,1027.33
2023-02-03T03:57:31.597Z,1027.43
2023-02-03T03:58:03.659Z,1027.43
2023-02-03T03:58:35.342Z,1027.33
2023-02-03T03:59:07.594Z,1027.33
2023-02-03T03:59:39.909Z,1027.43
2023-02-03T04:00:04.235Z,1027.33
2023-02-03T04:00:26.813Z,1027.33
2023-02-03T04:00:59.469Z,1027.33
2023-02-03T04:01:31.741Z,1027.33
2023-02-03T04:02:04.299Z,1027.33
2023-02-03T04:02:35.352Z,1027.23
2023-02-03T04:03:08.311Z,1027.23
2023-02-03T04:03:39.657Z,1027.23
2023-02-03T04:04:02.452Z,1027.23
2023-02-03T04:04:25.047Z,1027.23
2023-02-03T04:04:59.612Z,1027.23
2023-02-03T04:05:31.557Z,1027.33
2023-02-03T04:06:03.762Z,1027.33
2023-02-03T04:06:35.451Z,1027.12
2023-02-03T04:07:07.456Z,1027.12
2023-02-03T04:07:39.625Z,1027.12
2023-02-03T04:08:03.147Z,1027.33
2023-02-03T04:08:25.216Z,1027.33
2023-02-03T04:08:59.865Z,1027.33
2023-02-03T04:09:31.471Z,1027.23
2023-02-03T04:10:03.732Z,1027.23
2023-02-03T04:10:35.471Z,1027.23
2023-02-03T04:11:07.722Z,1027.23
2023-02-03T04:11:39.716Z,1027.12
2023-02-03T04:12:03.298Z,1027.33
2023-02-03T04:12:25.276Z,1027.33
2023-02-03T04:12:59.837Z,1027.33
2023-02-03T04:13:31.402Z,1027.43
2023-02-03T04:14:03.568Z,1027.43
2023-02-03T04:14:35.247Z,1027.33
2023-02-03T04:15:07.895Z,1027.33
2023-02-03T04:15:39.494Z,1027.33
2023-02-03T04:16:02.684Z,1027.33
2023-02-03T04:16:24.980Z,1027.33
2023-02-03T04:17:01.013Z,1027.33
2023-02-03T04:17:31.814Z,1027.12
2023-02-03T04:18:03.490Z,1027.12
2023-02-03T04:18:35.238Z,1027.33
2023-02-03T04:19:08.558Z,1027.33
2023-02-03T04:19:39.657Z,1027.23
2023-02-03T04:20:02.505Z,1027.02
2023-02-03T04:20:25.070Z,1027.02
2023-02-03T04:20:59.754Z,1027.02
2023-02-03T04:21:31.638Z,1027.02
2023-02-03T04:22:03.489Z,1027.02
2023-02-03T04:22:35.392Z,1027.23
2023-02-03T04:23:07.703Z,1027.23
2023-02-03T04:23:39.748Z,1027.23
2023-02-03T04:24:03.024Z,1026.92
2023-02-03T04:24:25.268Z,1026.92
2023-02-03T04:24:59.646Z,1026.92
2023-02-03T04:25:31.449Z,1027.02
2023-02-03T04:26:03.607Z,1027.02
2023-02-03T04:26:35.286Z,1026.92
2023-02-03T04:27:07.606Z,1026.92
2023-02-03T04:27:39.462Z,1027.02
2023-02-03T04:28:02.285Z,1027.12
2023-02-03T04:28:24.640Z,1027.12
2023-02-03T04:29:01.112Z,1027.12
2023-02-03T04:29:31.687Z,1027.33
2023-02-03T04:30:03.726Z,1027.33
2023-02-03T04:30:35.722Z,1027.43
2023-02-03T04:31:07.602Z,1027.43
2023-02-03T04:31:39.573Z,1027.33
2023-02-03T04:32:02.359Z,1027.12
2023-02-03T04:32:24.512Z,1027.12
2023-02-03T04:32:59.549Z,1027.12
2023-02-03T04:33:31.751Z,1027.33
2023-02-03T04:34:03.480Z,1027.33
2023-02-03T04:34:35.443Z,1027.33
2023-02-03T04:35:10.969Z,1027.33
2023-02-03T04:35:39.465Z,1027.43
2023-02-03T04:36:02.567Z,1027.23
2023-02-03T04:36:24.694Z,1027.23
2023-02-03T04:36:59.604Z,1027.23
2023-02-03T04:37:31.550Z,1027.43
2023-02-03T04:38:03.749Z,1027.43
2023-02-03T04:38:35.194Z,1027.33
2023-02-03T04:39:07.547Z,1027.33
2023-02-03T04:39:39.589Z,1027.33
2023-02-03T04:40:02.234Z,1027.43
2023-02-03T04:40:24.540Z,1027.43
2023-02-03T04:40:59.681Z,1027.43
2023-02-03T04:41:31.572Z,1027.43
2023-02-03T04:42:03.628Z,1027.43
2023-02-03T04:42:35.404Z,1027.33
2023-02-03T04:43:07.605Z,1027.33
2023-02-03T04:43:39.764Z,1027.33
2023-02-03T04:44:03.736Z,1027.33
2023-02-03T04:44:24.654Z,1027.33
2023-02-03T04:44:59.584Z,1027.33
2023-02-03T04:45:31.550Z,1027.23
2023-02-03T04:46:03.591Z,1027.23
2023-02-03T04:46:35.176Z,1027.43
2023-02-03T04:47:07.545Z,1027.43
2023-02-03T04:47:39.541Z,1027.23
2023-02-03T04:48:03.346Z,1027.43
2023-02-03T04:48:25.651Z,1027.43
2023-02-03T04:48:59.527Z,1027.43
2023-02-03T04:49:31.624Z,1027.23
2023-02-03T04:50:03.419Z,1027.23
2023-02-03T04:50:35.187Z,1027.53
2023-02-03T04:51:07.426Z,1027.53
2023-02-03T04:51:39.760Z,1027.33
2023-02-03T04:52:02.909Z,1027.33
2023-02-03T04:52:25.169Z,1027.33
2023-02-03T04:52:59.516Z,1027.33
2023-02-03T04:53:31.675Z,1027.23
2023-02-03T04:54:04.060Z,1027.23
2023-02-03T04:54:35.257Z,1027.33
2023-02-03T04:55:07.540Z,1027.33
2023-02-03T04:55:39.444Z,1027.33
2023-02-03T04:56:02.174Z,1027.33
2023-02-03T04:56:24.472Z,1027.33
2023-02-03T04:56:59.843Z,1027.33
2023-02-03T04:57:31.443Z,1027.33
2023-02-03T04:58:03.476Z,1027.33
2023-02-03T04:58:35.256Z,1027.23
2023-02-03T04:59:07.460Z,1027.23
2023-02-03T04:59:40.052Z,1027.12
2023-02-03T05:00:05.209Z,1027.12
2023-02-03T05:00:26.809Z,1027.12
2023-02-03T05:00:59.845Z,1027.12
2023-02-03T05:01:31.631Z,1027.23
2023-02-03T05:02:03.897Z,1027.23
2023-02-03T05:02:35.261Z,1027.33
2023-02-03T05:03:07.603Z,1027.33
2023-02-03T05:03:39.704Z,1027.12
2023-02-03T05:04:03.236Z,1027.12
2023-02-03T05:04:25.341Z,1027.12
2023-02-03T05:04:59.523Z,1027.12
2023-02-03T05:05:31.604Z,1027.33
2023-02-03T05:05:58.110Z,1027.33
2023-02-03T05:06:36.253Z,1027.12
2023-02-03T05:07:08.272Z,1027.12
2023-02-03T05:07:39.631Z,1027.12
2023-02-03T05:08:02.267Z,1027.02
2023-02-03T05:08:25.411Z,1027.02
2023-02-03T05:08:59.804Z,1027.02
2023-02-03T05:09:33.675Z,1026.92
2023-02-03T05:10:04.114Z,1026.92
2023-02-03T05:10:35.542Z,1026.92
2023-02-03T05:11:11.786Z,1026.92
2023-02-03T05:11:39.565Z,1026.92
2023-02-03T05:12:02.435Z,1026.72
2023-02-03T05:12:24.738Z,1026.72
2023-02-03T05:13:01.198Z,1026.72
2023-02-03T05:13:31.575Z,1027.12
2023-02-03T05:14:03.660Z,1027.12
2023-02-03T05:14:35.904Z,1026.92
2023-02-03T05:15:08.507Z,1026.92
2023-02-03T05:15:39.487Z,1027.12
2023-02-03T05:16:02.460Z,1027.23
2023-02-03T05:16:25.056Z,1027.23
2023-02-03T05:16:59.764Z,1027.23
2023-02-03T05:17:32.554Z,1027.12
2023-02-03T05:18:03.848Z,1027.12
2023-02-03T05:18:35.564Z,1027.02
2023-02-03T05:19:07.462Z,1027.02
2023-02-03T05:19:40.031Z,1026.92
2023-02-03T05:20:02.482Z,1026.72
2023-02-03T05:20:25.435Z,1026.72
2023-02-03T05:21:00.781Z,1026.72
2023-02-03T05:21:32.025Z,1027.02
2023-02-03T05:22:03.531Z,1027.02
2023-02-03T05:22:35.659Z,1026.92
2023-02-03T05:23:09.832Z,1026.92
2023-02-03T05:23:40.013Z,1027.02
2023-02-03T05:24:02.668Z,1027.12
2023-02-03T05:24:26.822Z,1027.12
2023-02-03T05:25:00.687Z,1027.12
2023-02-03T05:25:32.265Z,1027.02
2023-02-03T05:26:04.077Z,1027.02
2023-02-03T05:26:35.438Z,1027.12
2023-02-03T05:27:07.901Z,1027.12
2023-02-03T05:27:39.600Z,1026.92
2023-02-03T05:28:02.357Z,1026.92
2023-02-03T05:28:32.061Z,1026.92
2023-02-03T05:29:01.386Z,1026.92
2023-02-03T05:29:32.085Z,1027.23
2023-02-03T05:30:03.941Z,1027.23
2023-02-03T05:30:35.440Z,1026.82
2023-02-03T05:31:07.699Z,1026.82
2023-02-03T05:31:39.598Z,1026.92
2023-02-03T05:32:02.416Z,1027.02
2023-02-03T05:32:24.697Z,1027.02
2023-02-03T05:33:03.083Z,1027.02
2023-02-03T05:33:31.662Z,1027.12
2023-02-03T05:34:04.170Z,1027.12
2023-02-03T05:34:36.033Z,1026.82
2023-02-03T05:35:07.494Z,1026.82
2023-02-03T05:35:42.054Z,1026.82
2023-02-03T05:36:03.425Z,1026.82
2023-02-03T05:36:25.958Z,1026.82
2023-02-03T05:36:59.593Z,1026.82
2023-02-03T05:37:32.085Z,1026.72
2023-02-03T05:38:03.561Z,1026.72
2023-02-03T05:38:35.374Z,1027.02
2023-02-03T05:39:07.633Z,1027.02
2023-02-03T05:39:39.432Z,1027.02
2023-02-03T05:40:03.206Z,1026.82
2023-02-03T05:40:27.576Z,1026.82
2023-02-03T05:41:00.459Z,1026.82
2023-02-03T05:41:31.812Z,1027.02
2023-02-03T05:42:05.210Z,1026.82
2023-02-03T05:42:35.884Z,1026.82
2023-02-03T05:43:08.758Z,1026.82
2023-02-03T05:43:40.532Z,1026.92
2023-02-03T05:44:03.874Z,1026.72
2023-02-03T05:44:25.655Z,1026.72
2023-02-03T05:45:04.235Z,1027.02
2023-02-03T05:45:31.694Z,1027.02
2023-02-03T05:46:04.119Z,1027.02
2023-02-03T05:46:35.289Z,1026.92
2023-02-03T05:47:07.809Z,1026.92
2023-02-03T05:47:39.817Z,1026.72
2023-02-03T05:48:04.557Z,1026.62
2023-02-03T05:48:25.894Z,1026.62
2023-02-03T05:48:59.822Z,1026.62
2023-02-03T05:49:31.703Z,1026.92
2023-02-03T05:50:04.714Z,1026.92
2023-02-03T05:50:38.113Z,1026.82
2023-02-03T05:51:07.814Z,1026.82
2023-02-03T05:51:39.500Z,1026.72
2023-02-03T05:52:02.301Z,1026.62
2023-02-03T05:52:24.522Z,1026.62
2023-02-03T05:53:01.803Z,1026.62
2023-02-03T05:53:31.582Z,1026.82
2023-02-03T05:54:05.604Z,1026.82
2023-02-03T05:54:35.321Z,1026.82
2023-02-03T05:55:07.817Z,1026.82
2023-02-03T05:55:39.646Z,1026.72
2023-02-03T05:56:02.268Z,1026.41
2023-02-03T05:56:24.657Z,1026.41
2023-02-03T05:56:59.417Z,1026.41
2023-02-03T05:57:32.458Z,1026.72
2023-02-03T05:58:05.941Z,1026.72
2023-02-03T05:58:35.316Z,1026.92
2023-02-03T05:59:07.496Z,1026.92
2023-02-03T05:59:39.522Z,1026.72
2023-02-03T06:00:02.552Z,1026.82
2023-02-03T06:00:24.964Z,1026.82
2023-02-03T06:00:59.941Z,1026.82
2023-02-03T06:01:31.565Z,1026.72
2023-02-03T06:02:06.329Z,1026.72
2023-02-03T06:02:35.275Z,1026.82
2023-02-03T06:03:08.629Z,1026.82